Time;durP1;ratioP1;P1;durP2;ratioP2;P2;SDS_P1;SDS_P2;PMS_P1;PMS_P2;Temp;Humidity;BMP_temperature;BMP_pressure;BME280_temperature;BME280_humidity;BME280_pressure;Samples;Min_cycle;Max_cycle;Signal;HPM_P1;HPM_P2
2024/01/03 00:03:04;;;;;;;1.00;0.70;;;;;;;-146.30;100.00;58188.94;10450619;28;20482;-88
2024/01/03 00:08:11;;;;;;;0.10;0.08;;;;;;;-146.30;100.00;58188.94;10445916;28;20135;-87
2024/01/03 00:13:35;;;;;;;0.15;0.15;;;;;;;-146.30;100.00;58188.94;10436478;28;20098;-88
2024/01/03 00:18:54;;;;;;;0.28;0.28;;;;;;;-146.30;100.00;58188.94;10444974;28;20135;-87
2024/01/03 00:24:00;;;;;;;0.00;0.00;;;;;;;-146.30;100.00;58188.94;10453170;28;20051;-88
2024/01/03 00:29:04;;;;;;;0.15;0.15;;;;;;;-146.30;100.00;58188.94;10492143;28;20047;-88
2024/01/03 00:34:37;;;;;;;1.60;0.63;;;;;;;-146.30;100.00;58188.94;10478133;28;20052;-90
2024/01/03 00:39:39;;;;;;;2.38;0.52;;;;;;;-146.30;100.00;58188.94;10473047;28;20052;-87
2024/01/03 00:44:42;;;;;;;0.00;0.00;;;;;;;-146.30;100.00;58188.94;10467058;28;20064;-89
2024/01/03 00:49:45;;;;;;;0.00;0.00;;;;;;;-146.30;100.00;58188.94;10458461;28;20052;-89
2024/01/03 00:54:47;;;;;;;0.00;0.00;;;;;;;-146.30;100.00;58188.94;10475212;28;20045;-87
2024/01/03 00:59:50;;;;;;;1.13;0.50;;;;;;;-146.30;100.00;58188.94;10486811;28;20633;-87
2024/01/03 01:04:52;;;;;;;0.77;0.20;;;;;;;-146.30;100.00;58188.94;10456842;28;20590;-88
2024/01/03 01:09:54;;;;;;;0.00;0.00;;;;;;;-146.30;100.00;58188.94;10456092;28;20033;-86
2024/01/03 01:14:59;;;;;;;1.00;0.45;;;;;;;-146.30;100.00;58188.94;10462112;28;20041;-88
2024/01/03 01:20:02;;;;;;;8.98;0.65;;;;;;;-146.30;100.00;58188.94;10461896;28;20479;-87
2024/01/03 01:25:05;;;;;;;0.00;0.00;;;;;;;-146.30;100.00;58188.94;10481551;28;20045;-89
2024/01/03 01:30:07;;;;;;;9.57;0.20;;;;;;;-146.30;100.00;58188.94;10473076;28;20517;-88
2024/01/03 01:35:09;;;;;;;0.10;0.03;;;;;;;-146.30;100.00;58188.94;10471467;28;20093;-88
2024/01/03 01:40:11;;;;;;;0.00;0.00;;;;;;;-146.30;100.00;58188.94;10455085;28;20670;-86
2024/01/03 01:45:13;;;;;;;0.52;0.20;;;;;;;-146.30;100.00;58188.94;10463221;28;20143;-87
2024/01/03 01:50:15;;;;;;;0.10;0.10;;;;;;;-146.30;100.00;58188.94;10463663;28;20036;-87
2024/01/03 01:55:17;;;;;;;0.03;0.03;;;;;;;-146.30;100.00;58188.94;10467296;28;20041;-89
2024/01/03 02:00:19;;;;;;;0.77;0.28;;;;;;;-146.30;100.00;58188.94;10452039;28;20044;-88
2024/01/03 02:05:21;;;;;;;3.63;0.80;;;;;;;-146.30;100.00;58188.94;10445275;28;20044;-88
2024/01/03 02:10:23;;;;;;;1.30;0.57;;;;;;;-146.30;100.00;58188.94;10455380;28;20044;-87
2024/01/03 02:15:27;;;;;;;0.28;0.22;;;;;;;-146.30;100.00;58188.94;10441765;28;20049;-89
2024/01/03 02:20:35;;;;;;;0.20;0.20;;;;;;;-146.30;100.00;58188.94;10464138;28;20044;-88
2024/01/03 02:25:37;;;;;;;1.10;0.47;;;;;;;-146.30;100.00;58188.94;10447948;28;20041;-86
2024/01/03 02:30:41;;;;;;;0.00;0.00;;;;;;;-146.30;100.00;58188.94;10430775;28;20037;-87
2024/01/03 02:35:43;;;;;;;1.00;0.50;;;;;;;-146.30;100.00;58188.94;10455854;28;20052;-88
2024/01/03 02:40:45;;;;;;;1.92;1.35;;;;;;;-146.30;100.00;58188.94;10453905;28;20051;-87
2024/01/03 02:45:46;;;;;;;24.73;0.43;;;;;;;-146.30;100.00;58188.94;10474458;28;20040;-86
2024/01/03 02:50:48;;;;;;;0.10;0.10;;;;;;;-146.30;100.00;58188.94;10453800;28;20044;-88
2024/01/03 02:55:50;;;;;;;0.10;0.10;;;;;;;-146.30;100.00;58188.94;10493321;28;20083;-87
2024/01/03 03:00:52;;;;;;;17.42;2.65;;;;;;;-146.30;100.00;58188.94;10451019;28;20064;-87
2024/01/03 03:05:54;;;;;;;0.10;0.10;;;;;;;-146.30;100.00;58188.94;10438449;28;20044;-88
2024/01/03 03:10:55;;;;;;;24.55;0.98;;;;;;;-146.30;100.00;58188.94;10450069;28;20041;-89
2024/01/03 03:15:57;;;;;;;0.55;0.10;;;;;;;-146.30;100.00;58188.94;10471974;28;20080;-87
2024/01/03 03:21:00;;;;;;;1.85;0.75;;;;;;;-146.30;100.00;58188.94;10453421;28;20575;-87
2024/01/03 03:26:04;;;;;;;0.10;0.10;;;;;;;-146.30;100.00;58188.94;10447714;28;20048;-89
2024/01/03 03:31:06;;;;;;;0.52;0.30;;;;;;;-146.30;100.00;58188.94;10446961;28;20499;-87
2024/01/03 03:36:12;;;;;;;1.20;0.32;;;;;;;-146.30;100.00;58188.94;10464734;28;20537;-87
2024/01/03 03:41:15;;;;;;;1.90;0.25;;;;;;;-146.30;100.00;58188.94;10448251;28;20083;-88
2024/01/03 03:46:18;;;;;;;2.92;0.32;;;;;;;-146.30;100.00;58188.94;10457250;28;20135;-88
2024/01/03 03:51:19;;;;;;;0.00;0.00;;;;;;;-146.30;100.00;58188.94;10485230;28;20073;-88
2024/01/03 03:56:23;;;;;;;0.35;0.30;;;;;;;-146.30;100.00;58188.94;10442812;28;20049;-87
2024/01/03 04:01:26;;;;;;;0.20;0.20;;;;;;;-146.30;100.00;58188.94;10454056;28;20044;-87
2024/01/03 04:06:27;;;;;;;0.65;0.17;;;;;;;-146.30;100.00;58188.94;10423114;28;20049;-85
2024/01/03 04:11:29;;;;;;;1.02;0.50;;;;;;;-146.30;100.00;58188.94;10451290;28;20044;-87
2024/01/03 04:16:31;;;;;;;0.00;0.00;;;;;;;-146.30;100.00;58188.94;10459200;28;20102;-88
2024/01/03 04:21:33;;;;;;;0.28;0.28;;;;;;;-146.30;100.00;58188.94;10441336;28;20048;-86
2024/01/03 04:26:35;;;;;;;1.58;1.00;;;;;;;-146.30;100.00;58188.94;10445850;28;20076;-86
2024/01/03 04:31:37;;;;;;;0.45;0.43;;;;;;;-146.30;100.00;58188.94;10457103;28;20049;-87
2024/01/03 04:36:38;;;;;;;3.20;0.50;;;;;;;-146.30;100.00;58188.94;10450709;28;20067;-88
2024/01/03 04:41:40;;;;;;;4.38;0.60;;;;;;;-146.30;100.00;58188.94;10472149;28;20103;-87
2024/01/03 04:46:42;;;;;;;0.00;0.00;;;;;;;-146.30;100.00;58188.94;10477288;28;20076;-87
2024/01/03 04:51:44;;;;;;;1.20;0.90;;;;;;;-146.30;100.00;58188.94;10441738;28;20475;-89
2024/01/03 04:56:46;;;;;;;6.65;0.82;;;;;;;-146.30;100.00;58188.94;10435394;28;20075;-87
2024/01/03 05:01:48;;;;;;;1.23;0.85;;;;;;;-146.30;100.00;58188.94;10467657;28;20036;-86
2024/01/03 05:06:50;;;;;;;3.30;1.95;;;;;;;-146.30;100.00;58188.94;10448974;28;20041;-88
2024/01/03 05:11:52;;;;;;;1.38;0.52;;;;;;;-146.30;100.00;58188.94;10450600;28;20548;-88
2024/01/03 05:16:54;;;;;;;3.03;0.85;;;;;;;-146.30;100.00;58188.94;10456146;28;20052;-88
2024/01/03 05:21:56;;;;;;;0.20;0.10;;;;;;;-146.30;100.00;58188.94;10461380;28;20052;-87
2024/01/03 05:26:57;;;;;;;0.20;0.20;;;;;;;-146.30;100.00;58188.94;10465620;28;20045;-87
2024/01/03 05:31:59;;;;;;;0.30;0.20;;;;;;;-146.30;100.00;58188.94;10465573;28;20059;-85
2024/01/03 05:37:01;;;;;;;0.20;0.20;;;;;;;-146.30;100.00;58188.94;10438864;28;20045;-87
2024/01/03 05:42:04;;;;;;;1.00;0.35;;;;;;;-146.30;100.00;58188.94;10465853;28;20075;-86
2024/01/03 05:47:05;;;;;;;0.00;0.00;;;;;;;-146.30;100.00;58188.94;10470346;28;20106;-87
2024/01/03 05:52:08;;;;;;;1.67;0.63;;;;;;;-146.30;100.00;58188.94;10475786;28;20048;-86
2024/01/03 05:57:10;;;;;;;0.75;0.38;;;;;;;-146.30;100.00;58188.94;10471869;28;20139;-86
2024/01/03 06:02:11;;;;;;;0.32;0.20;;;;;;;-146.30;100.00;58188.94;10448106;28;20043;-85
2024/01/03 06:07:13;;;;;;;0.00;0.00;;;;;;;-146.30;100.00;58188.94;10443982;28;20629;-85
2024/01/03 06:12:15;;;;;;;0.03;0.03;;;;;;;-146.30;100.00;58188.94;10434587;28;20147;-85
2024/01/03 06:17:17;;;;;;;2.10;0.95;;;;;;;-146.30;100.00;58188.94;10455216;28;20053;-86
2024/01/03 06:22:18;;;;;;;4.38;1.20;;;;;;;-146.30;100.00;58188.94;10446956;28;20049;-85
2024/01/03 06:27:20;;;;;;;0.15;0.13;;;;;;;-146.30;100.00;58188.94;10437150;28;20164;-86
2024/01/03 06:32:22;;;;;;;1.45;1.13;;;;;;;-146.30;100.00;58188.94;10434981;28;20059;-86
2024/01/03 06:37:24;;;;;;;0.10;0.10;;;;;;;-146.30;100.00;58188.94;10437570;28;20492;-86
2024/01/03 06:42:25;;;;;;;0.30;0.03;;;;;;;-146.30;100.00;58188.94;10431169;28;20137;-85
2024/01/03 06:47:27;;;;;;;0.20;0.20;;;;;;;-146.30;100.00;58188.94;10434621;28;20067;-85
2024/01/03 06:52:30;;;;;;;0.28;0.13;;;;;;;-146.30;100.00;58188.94;10438176;28;20081;-86
2024/01/03 06:57:32;;;;;;;0.80;0.30;;;;;;;-146.30;100.00;58188.94;10437145;28;20052;-85
2024/01/03 07:02:34;;;;;;;0.00;0.00;;;;;;;-146.30;100.00;58188.94;10446600;28;20108;-85
2024/01/03 07:07:35;;;;;;;1.10;1.00;;;;;;;-146.30;100.00;58188.94;10446092;28;20102;-85
2024/01/03 07:12:38;;;;;;;0.00;0.00;;;;;;;-146.30;100.00;58188.94;10439866;28;20379;-87
2024/01/03 07:17:40;;;;;;;0.00;0.00;;;;;;;-146.30;100.00;58188.94;10437459;28;20048;-85
2024/01/03 07:22:41;;;;;;;0.00;0.00;;;;;;;-146.30;100.00;58188.94;10465336;28;20484;-85
2024/01/03 07:27:43;;;;;;;0.10;0.10;;;;;;;-146.30;100.00;58188.94;10443786;28;20446;-85
2024/01/03 07:32:45;;;;;;;0.10;0.10;;;;;;;-146.30;100.00;58188.94;10455089;28;20069;-86
2024/01/03 07:37:47;;;;;;;0.00;0.00;;;;;;;-146.30;100.00;58188.94;10440476;28;20448;-86
2024/01/03 07:42:49;;;;;;;0.00;0.00;;;;;;;-146.30;100.00;58188.94;10439202;28;20132;-86
2024/01/03 07:47:51;;;;;;;0.00;0.00;;;;;;;-146.30;100.00;58188.94;10459701;28;20049;-86
2024/01/03 07:52:53;;;;;;;0.00;0.00;;;;;;;-146.30;100.00;58188.94;10434195;28;20454;-86
2024/01/03 07:57:55;;;;;;;0.00;0.00;;;;;;;-146.30;100.00;58188.94;10444515;28;20132;-87
2024/01/03 08:02:57;;;;;;;0.00;0.00;;;;;;;-146.30;100.00;58188.94;10444531;28;20069;-87
2024/01/03 08:07:59;;;;;;;0.00;0.00;;;;;;;-146.30;100.00;58188.94;10434716;28;20495;-85
2024/01/03 08:13:01;;;;;;;2.00;0.30;;;;;;;-146.30;100.00;58188.94;10435544;28;20074;-89
2024/01/03 08:18:03;;;;;;;0.45;0.20;;;;;;;-146.30;100.00;58188.94;10442229;28;20040;-86
2024/01/03 08:23:05;;;;;;;0.00;0.00;;;;;;;-146.30;100.00;58188.94;10441965;28;20507;-86
2024/01/03 08:28:07;;;;;;;0.52;0.38;;;;;;;-146.30;100.00;58188.94;10441743;28;20404;-86
2024/01/03 08:33:09;;;;;;;0.00;0.00;;;;;;;-146.30;100.00;58188.94;10446284;28;20047;-87
2024/01/03 08:38:12;;;;;;;0.25;0.25;;;;;;;-146.30;100.00;58188.94;10470630;28;20384;-86
2024/01/03 08:43:14;;;;;;;0.00;0.00;;;;;;;-146.30;100.00;58188.94;10452566;28;20478;-86
2024/01/03 08:48:15;;;;;;;0.00;0.00;;;;;;;-146.30;100.00;58188.94;10456594;28;20670;-85
2024/01/03 08:53:18;;;;;;;0.00;0.00;;;;;;;-146.30;100.00;58188.94;10459207;28;20049;-85
2024/01/03 08:58:20;;;;;;;0.00;0.00;;;;;;;-146.30;100.00;58188.94;10415002;28;20049;-86
2024/01/03 09:03:21;;;;;;;0.35;0.30;;;;;;;-146.30;100.00;58188.94;10430090;28;20048;-85
2024/01/03 09:08:23;;;;;;;0.20;0.10;;;;;;;-146.30;100.00;58188.94;10440407;28;20049;-86
2024/01/03 09:13:25;;;;;;;0.00;0.00;;;;;;;-146.30;100.00;58188.94;10449560;28;20118;-88
2024/01/03 09:18:27;;;;;;;0.00;0.00;;;;;;;-146.30;100.00;58188.94;10440706;28;20049;-85
2024/01/03 09:23:30;;;;;;;0.80;0.30;;;;;;;-146.30;100.00;58188.94;10443308;28;20506;-86
2024/01/03 09:28:34;;;;;;;0.00;0.00;;;;;;;-146.30;100.00;58188.94;10453910;28;20063;-85
2024/01/03 09:33:37;;;;;;;0.10;0.10;;;;;;;-146.30;100.00;58188.94;10482208;28;20049;-86
2024/01/03 09:38:40;;;;;;;0.43;0.20;;;;;;;-146.30;100.00;58188.94;10443879;28;20064;-86
2024/01/03 09:43:42;;;;;;;0.00;0.00;;;;;;;-146.30;100.00;58188.94;10462942;28;20049;-82
2024/01/03 09:48:47;;;;;;;0.00;0.00;;;;;;;-146.30;100.00;58188.94;10483042;28;20476;-82
2024/01/03 09:53:54;;;;;;;0.00;0.00;;;;;;;-146.30;100.00;58188.94;10428037;28;20041;-83
2024/01/03 09:58:56;;;;;;;0.08;0.05;;;;;;;-146.30;100.00;58188.94;10418227;28;20048;-83
2024/01/03 10:03:58;;;;;;;0.10;0.00;;;;;;;-146.30;100.00;58188.94;10465530;28;20060;-83
2024/01/03 10:09:02;;;;;;;0.20;0.20;;;;;;;-146.30;100.00;58188.94;10464930;28;20059;-82
2024/01/03 10:14:19;;;;;;;0.10;0.10;;;;;;;-146.30;100.00;58188.94;10495864;28;20123;-83
2024/01/03 10:19:22;;;;;;;0.10;0.10;;;;;;;-146.30;100.00;58188.94;10492129;28;20054;-82
2024/01/03 10:24:24;;;;;;;0.22;0.10;;;;;;;-146.30;100.00;58188.94;10485748;28;20127;-83
2024/01/03 10:29:29;;;;;;;0.50;0.50;;;;;;;-146.30;100.00;58188.94;10478850;28;20536;-84
2024/01/03 10:34:31;;;;;;;3.95;0.55;;;;;;;-146.30;100.00;58188.94;10496285;28;20438;-83
2024/01/03 10:39:35;;;;;;;0.05;0.05;;;;;;;-146.30;100.00;58188.94;10500057;28;20052;-83
2024/01/03 10:44:41;;;;;;;0.55;0.38;;;;;;;-146.30;100.00;58188.94;10486732;28;20149;-84
2024/01/03 10:49:44;;;;;;;0.38;0.38;;;;;;;-146.30;100.00;58188.94;10479337;28;20040;-84
2024/01/03 10:54:49;;;;;;;15.38;1.00;;;;;;;-146.30;100.00;58188.94;10479507;28;20483;-83
2024/01/03 11:00:01;;;;;;;0.00;0.00;;;;;;;-146.30;100.00;58188.94;10514476;28;20060;-81
2024/01/03 11:05:22;;;;;;;0.10;0.10;;;;;;;-146.30;100.00;58188.94;10484376;28;20131;-80
2024/01/03 11:10:47;;;;;;;0.13;0.13;;;;;;;-146.30;100.00;58188.94;10493282;28;20051;-80
2024/01/03 11:15:49;;;;;;;0.43;0.20;;;;;;;-146.30;100.00;58188.94;10480412;28;20040;-80
2024/01/03 11:20:51;;;;;;;0.47;0.47;;;;;;;-146.30;100.00;58188.94;10494414;28;20071;-82
2024/01/03 11:25:53;;;;;;;3.53;1.27;;;;;;;-146.30;100.00;58188.94;10486167;28;20048;-80
2024/01/03 11:30:55;;;;;;;6.65;0.95;;;;;;;-146.30;100.00;58188.94;10473818;28;20049;-80
2024/01/03 11:35:58;;;;;;;0.63;0.10;;;;;;;-146.30;100.00;58188.94;10491930;28;20055;-81
2024/01/03 11:41:00;;;;;;;1.85;1.00;;;;;;;-146.30;100.00;58188.94;10496178;28;20045;-81
2024/01/03 11:46:10;;;;;;;0.05;0.05;;;;;;;-146.30;100.00;58188.94;10478206;28;20422;-81
2024/01/03 11:51:23;;;;;;;1.23;0.77;;;;;;;-146.30;100.00;58188.94;10494171;28;20080;-81
2024/01/03 11:56:34;;;;;;;0.22;0.20;;;;;;;-146.30;100.00;58188.94;10501479;28;20864;-79
2024/01/03 12:01:36;;;;;;;3.75;0.65;;;;;;;-146.30;100.00;58188.94;10505056;28;20381;-80
2024/01/03 12:06:39;;;;;;;1.05;0.75;;;;;;;-146.30;100.00;58188.94;10475161;28;20077;-80
2024/01/03 12:11:41;;;;;;;0.22;0.22;;;;;;;-146.30;100.00;58188.94;10512566;28;20068;-79
2024/01/03 12:16:47;;;;;;;0.95;0.52;;;;;;;-146.30;100.00;58188.94;10485576;28;20064;-80
2024/01/03 12:21:53;;;;;;;0.55;0.35;;;;;;;-146.30;100.00;58188.94;10476436;28;20041;-80
2024/01/03 12:26:55;;;;;;;1.60;0.22;;;;;;;-146.30;100.00;58188.94;10504963;28;20072;-82
2024/01/03 12:32:11;;;;;;;0.77;0.77;;;;;;;-146.30;100.00;58188.94;10503515;28;20041;-80
2024/01/03 12:37:14;;;;;;;1.55;0.20;;;;;;;-146.30;100.00;58188.94;10465688;28;20052;-80
2024/01/03 12:42:16;;;;;;;0.25;0.10;;;;;;;-146.30;100.00;58188.94;10504239;28;20044;-80
2024/01/03 12:47:29;;;;;;;0.10;0.00;;;;;;;-146.30;100.00;58188.94;10499392;28;20605;-88
2024/01/03 12:52:32;;;;;;;0.20;0.17;;;;;;;-146.30;100.00;58188.94;10488875;28;20048;-81
2024/01/03 12:57:34;;;;;;;0.08;0.08;;;;;;;-146.30;100.00;58188.94;10480845;28;20059;-81
2024/01/03 13:02:36;;;;;;;0.00;0.00;;;;;;;-146.30;100.00;58188.94;10468710;28;20069;-80
2024/01/03 13:07:38;;;;;;;0.10;0.03;;;;;;;-146.30;100.00;58188.94;10487085;28;20091;-81
2024/01/03 13:12:39;;;;;;;0.00;0.00;;;;;;;-146.30;100.00;58188.94;10508899;28;20044;-80
2024/01/03 13:17:41;;;;;;;0.00;0.00;;;;;;;-146.30;100.00;58188.94;10496809;28;20087;-80
2024/01/03 13:22:44;;;;;;;0.08;0.05;;;;;;;-146.30;100.00;58188.94;10485163;28;20123;-80
2024/01/03 13:27:47;;;;;;;6.30;0.40;;;;;;;-146.30;100.00;58188.94;10499818;28;20048;-81
2024/01/03 13:32:49;;;;;;;0.25;0.20;;;;;;;-146.30;100.00;58188.94;10503142;28;20071;-81
2024/01/03 13:37:51;;;;;;;0.00;0.00;;;;;;;-146.30;100.00;58188.94;10483933;28;20036;-80
2024/01/03 13:42:53;;;;;;;1.27;0.20;;;;;;;-146.30;100.00;58188.94;10481820;28;20068;-81
2024/01/03 13:47:56;;;;;;;0.00;0.00;;;;;;;-146.30;100.00;58188.94;10487782;28;20045;-81
2024/01/03 13:52:58;;;;;;;0.00;0.00;;;;;;;-146.30;100.00;58188.94;10474022;28;20197;-80
2024/01/03 13:58:01;;;;;;;0.00;0.00;;;;;;;-146.30;100.00;58188.94;10482438;28;20048;-79
2024/01/03 14:03:05;;;;;;;1.25;0.28;;;;;;;-146.30;100.00;58188.94;10495866;28;20044;-80
2024/01/03 14:08:08;;;;;;;0.20;0.20;;;;;;;-146.30;100.00;58188.94;10498638;28;20045;-80
2024/01/03 14:13:11;;;;;;;0.00;0.00;;;;;;;-146.30;100.00;58188.94;10495780;28;20052;-80
2024/01/03 14:18:13;;;;;;;0.00;0.00;;;;;;;-146.30;100.00;58188.94;10479110;28;20048;-80
2024/01/03 14:23:19;;;;;;;0.30;0.30;;;;;;;-146.30;100.00;58188.94;10479459;28;20071;-80
2024/01/03 14:28:22;;;;;;;0.10;0.03;;;;;;;-146.30;100.00;58188.94;10482112;28;20048;-80
2024/01/03 14:33:24;;;;;;;0.17;0.00;;;;;;;-146.30;100.00;58188.94;10505116;28;20470;-79
2024/01/03 14:38:27;;;;;;;0.00;0.00;;;;;;;-146.30;100.00;58188.94;10476891;28;20055;-80
2024/01/03 14:43:33;;;;;;;0.40;0.40;;;;;;;-146.30;100.00;58188.94;10467523;28;20036;-79
2024/01/03 14:48:36;;;;;;;0.90;0.22;;;;;;;-146.30;100.00;58188.94;10486599;28;20127;-79
2024/01/03 14:53:39;;;;;;;0.00;0.00;;;;;;;-146.30;100.00;58188.94;10481875;28;20036;-79
2024/01/03 14:58:42;;;;;;;0.00;0.00;;;;;;;-146.30;100.00;58188.94;10482644;28;20495;-80
2024/01/03 15:03:44;;;;;;;0.00;0.00;;;;;;;-146.30;100.00;58188.94;10509746;28;20047;-80
2024/01/03 15:08:48;;;;;;;0.00;0.00;;;;;;;-146.30;100.00;58188.94;10481445;28;20067;-80
2024/01/03 15:13:51;;;;;;;0.43;0.08;;;;;;;-146.30;100.00;58188.94;10510659;28;20082;-80
2024/01/03 15:18:53;;;;;;;0.00;0.00;;;;;;;-146.30;100.00;58188.94;10456201;28;20048;-81
2024/01/03 15:23:56;;;;;;;0.00;0.00;;;;;;;-146.30;100.00;58188.94;10494269;28;20479;-80
2024/01/03 15:28:58;;;;;;;0.00;0.00;;;;;;;-146.30;100.00;58188.94;10477636;28;20045;-80
2024/01/03 15:34:01;;;;;;;0.00;0.00;;;;;;;-146.30;100.00;58188.94;10496838;28;21217;-80
2024/01/03 15:39:04;;;;;;;0.00;0.00;;;;;;;-146.30;100.00;58188.94;10479829;28;20354;-82
2024/01/03 15:44:08;;;;;;;0.00;0.00;;;;;;;-146.30;100.00;58188.94;10495500;28;20426;-80
2024/01/03 15:49:11;;;;;;;0.00;0.00;;;;;;;-146.30;100.00;58188.94;10480657;28;20098;-80
2024/01/03 15:54:13;;;;;;;0.00;0.00;;;;;;;-146.30;100.00;58188.94;10494037;28;20556;-80
2024/01/03 15:59:17;;;;;;;0.20;0.10;;;;;;;-146.30;100.00;58188.94;10463445;28;20049;-82
2024/01/03 16:04:19;;;;;;;0.00;0.00;;;;;;;-146.30;100.00;58188.94;10480998;28;20048;-82
2024/01/03 16:09:21;;;;;;;0.00;0.00;;;;;;;-146.30;100.00;58188.94;10480802;28;20049;-83
2024/01/03 16:14:23;;;;;;;0.00;0.00;;;;;;;-146.30;100.00;58188.94;10513545;28;20126;-84
2024/01/03 16:19:25;;;;;;;0.00;0.00;;;;;;;-146.30;100.00;58188.94;10520554;28;20047;-83
2024/01/03 16:24:28;;;;;;;0.10;0.08;;;;;;;-146.30;100.00;58188.94;10484655;28;20094;-83
2024/01/03 16:29:30;;;;;;;0.00;0.00;;;;;;;-146.30;100.00;58188.94;10491883;28;20048;-83
2024/01/03 16:34:32;;;;;;;0.00;0.00;;;;;;;-146.30;100.00;58188.94;10477079;28;20094;-82
2024/01/03 16:39:36;;;;;;;0.00;0.00;;;;;;;-146.30;100.00;58188.94;10460961;28;20510;-83
2024/01/03 16:44:38;;;;;;;0.00;0.00;;;;;;;-146.30;100.00;58188.94;10482293;28;20499;-83
2024/01/03 16:49:42;;;;;;;0.57;0.40;;;;;;;-146.30;100.00;58188.94;10474452;28;20053;-82
2024/01/03 16:54:44;;;;;;;0.00;0.00;;;;;;;-146.30;100.00;58188.94;10511422;28;20048;-83
2024/01/03 16:59:47;;;;;;;0.00;0.00;;;;;;;-146.30;100.00;58188.94;10477039;28;20097;-83
2024/01/03 17:04:51;;;;;;;0.17;0.17;;;;;;;-146.30;100.00;58188.94;10515539;28;20036;-84
2024/01/03 17:09:55;;;;;;;0.00;0.00;;;;;;;-146.30;100.00;58188.94;10481766;28;20385;-85
2024/01/03 17:14:57;;;;;;;0.00;0.00;;;;;;;-146.30;100.00;58188.94;10469659;28;20064;-84
2024/01/03 17:19:59;;;;;;;0.00;0.00;;;;;;;-146.30;100.00;58188.94;10515733;28;20430;-84
2024/01/03 17:25:01;;;;;;;0.00;0.00;;;;;;;-146.30;100.00;58188.94;10483123;28;20041;-85
2024/01/03 17:30:04;;;;;;;0.08;0.08;;;;;;;-146.30;100.00;58188.94;10467693;28;20044;-85
2024/01/03 17:35:06;;;;;;;0.00;0.00;;;;;;;-146.30;100.00;58188.94;10492096;28;20037;-85
2024/01/03 17:40:08;;;;;;;0.05;0.03;;;;;;;-146.30;100.00;58188.94;10511159;28;20048;-84
2024/01/03 17:45:10;;;;;;;0.10;0.10;;;;;;;-146.30;100.00;58188.94;10518764;28;20516;-85
2024/01/03 17:50:13;;;;;;;0.30;0.20;;;;;;;-146.30;100.00;58188.94;10476829;28;20036;-84
2024/01/03 17:55:15;;;;;;;0.00;0.00;;;;;;;-146.30;100.00;58188.94;10486410;28;20083;-84
2024/01/03 18:00:17;;;;;;;0.03;0.03;;;;;;;-146.30;100.00;58188.94;10510587;28;20075;-84
2024/01/03 18:05:19;;;;;;;0.00;0.00;;;;;;;-146.30;100.00;58188.94;10493597;28;20131;-84
2024/01/03 18:10:21;;;;;;;0.30;0.20;;;;;;;-146.30;100.00;58188.94;10479140;28;20510;-84
2024/01/03 18:15:23;;;;;;;0.00;0.00;;;;;;;-146.30;100.00;58188.94;10458457;28;20127;-83
2024/01/03 18:20:25;;;;;;;1.27;0.08;;;;;;;-146.30;100.00;58188.94;10464347;28;20060;-84
2024/01/03 18:25:27;;;;;;;0.00;0.00;;;;;;;-146.30;100.00;58188.94;10478030;28;20040;-84
2024/01/03 18:30:29;;;;;;;0.03;0.03;;;;;;;-146.30;100.00;58188.94;10464348;28;20059;-83
2024/01/03 18:35:30;;;;;;;0.00;0.00;;;;;;;-146.30;100.00;58188.94;10489105;28;20090;-84
2024/01/03 18:40:33;;;;;;;0.00;0.00;;;;;;;-146.30;100.00;58188.94;10496527;28;20052;-84
2024/01/03 18:45:34;;;;;;;0.00;0.00;;;;;;;-146.30;100.00;58188.94;10495267;28;20048;-83
2024/01/03 18:50:36;;;;;;;0.30;0.10;;;;;;;-146.30;100.00;58188.94;10492208;28;20071;-84
2024/01/03 18:55:39;;;;;;;0.13;0.10;;;;;;;-146.30;100.00;58188.94;10510643;28;20044;-84
2024/01/03 19:00:43;;;;;;;3.42;0.43;;;;;;;-146.30;100.00;58188.94;10473330;28;20384;-84
2024/01/03 19:05:45;;;;;;;0.10;0.10;;;;;;;-146.30;100.00;58188.94;10493612;28;20055;-84
2024/01/03 19:10:47;;;;;;;2.30;0.35;;;;;;;-146.30;100.00;58188.94;10463470;28;20515;-84
2024/01/03 19:15:49;;;;;;;1.08;0.80;;;;;;;-146.30;100.00;58188.94;10460482;28;20044;-84
2024/01/03 19:20:51;;;;;;;0.00;0.00;;;;;;;-146.30;100.00;58188.94;10472906;28;20063;-83
2024/01/03 19:25:53;;;;;;;0.17;0.10;;;;;;;-146.30;100.00;58188.94;10483634;28;20087;-85
2024/01/03 19:30:55;;;;;;;0.45;0.17;;;;;;;-146.30;100.00;58188.94;10477073;28;20575;-84
2024/01/03 19:35:57;;;;;;;0.10;0.10;;;;;;;-146.30;100.00;58188.94;10510508;28;20043;-85
2024/01/03 19:40:58;;;;;;;0.00;0.00;;;;;;;-146.30;100.00;58188.94;10513369;28;20052;-84
2024/01/03 19:46:00;;;;;;;0.00;0.00;;;;;;;-146.30;100.00;58188.94;10487151;28;20041;-84
2024/01/03 19:51:03;;;;;;;0.00;0.00;;;;;;;-146.30;100.00;58188.94;10468835;28;20091;-84
2024/01/03 19:56:18;;;;;;;0.00;0.00;;;;;;;-146.30;100.00;58188.94;10487015;28;20154;-85
2024/01/03 20:01:20;;;;;;;1.30;0.22;;;;;;;-146.30;100.00;58188.94;10489204;28;20052;-84
2024/01/03 20:06:23;;;;;;;0.55;0.38;;;;;;;-146.30;100.00;58188.94;10490567;28;20147;-85
2024/01/03 20:11:25;;;;;;;0.00;0.00;;;;;;;-146.30;100.00;58188.94;10476056;28;20102;-84
2024/01/03 20:16:27;;;;;;;0.00;0.00;;;;;;;-146.30;100.00;58188.94;10493247;28;20396;-84
2024/01/03 20:21:29;;;;;;;0.03;0.03;;;;;;;-146.30;100.00;58188.94;10476756;28;20111;-84
2024/01/03 20:26:30;;;;;;;0.00;0.00;;;;;;;-146.30;100.00;58188.94;10490241;28;20515;-84
2024/01/03 20:31:33;;;;;;;0.00;0.00;;;;;;;-146.30;100.00;58188.94;10476966;28;20045;-85
2024/01/03 20:36:47;;;;;;;0.00;0.00;;;;;;;-146.30;100.00;58188.94;10475461;28;20091;-84
2024/01/03 20:41:49;;;;;;;0.00;0.00;;;;;;;-146.30;100.00;58188.94;10468766;28;20095;-84
2024/01/03 20:46:51;;;;;;;0.22;0.10;;;;;;;-146.30;100.00;58188.94;10465077;28;20059;-84
2024/01/03 20:51:52;;;;;;;0.10;0.10;;;;;;;-146.30;100.00;58188.94;10479671;28;20049;-84
2024/01/03 20:56:54;;;;;;;0.00;0.00;;;;;;;-146.30;100.00;58188.94;10488886;28;20047;-84
2024/01/03 21:01:56;;;;;;;0.93;0.08;;;;;;;-146.30;100.00;58188.94;10480295;28;20044;-84
2024/01/03 21:06:58;;;;;;;0.15;0.15;;;;;;;-146.30;100.00;58188.94;10493777;28;20047;-85
2024/01/03 21:12:00;;;;;;;0.32;0.22;;;;;;;-146.30;100.00;58188.94;10470525;28;20455;-84
2024/01/03 21:17:02;;;;;;;0.10;0.10;;;;;;;-146.30;100.00;58188.94;10513877;28;20048;-85
2024/01/03 21:22:04;;;;;;;7.37;0.67;;;;;;;-146.30;100.00;58188.94;10475989;28;20052;-85
2024/01/03 21:27:06;;;;;;;0.43;0.43;;;;;;;-146.30;100.00;58188.94;10479943;28;20501;-85
2024/01/03 21:32:28;;;;;;;0.05;0.05;;;;;;;-146.30;100.00;58188.94;10481368;28;20040;-85
2024/01/03 21:37:32;;;;;;;2.97;0.52;;;;;;;-146.30;100.00;58188.94;10515806;28;20578;-85
2024/01/03 21:42:40;;;;;;;0.05;0.05;;;;;;;-146.30;100.00;58188.94;10496376;28;20039;-84
2024/01/03 21:47:42;;;;;;;0.15;0.10;;;;;;;-146.30;100.00;58188.94;10470485;28;20048;-86
2024/01/03 21:52:46;;;;;;;0.00;0.00;;;;;;;-146.30;100.00;58188.94;10473838;28;20040;-84
2024/01/03 21:57:48;;;;;;;0.28;0.20;;;;;;;-146.30;100.00;58188.94;10481182;28;20050;-84
2024/01/03 22:02:51;;;;;;;0.38;0.38;;;;;;;-146.30;100.00;58188.94;10482056;28;20094;-85
2024/01/03 22:07:53;;;;;;;0.00;0.00;;;;;;;-146.30;100.00;58188.94;10488340;28;20395;-84
2024/01/03 22:12:55;;;;;;;0.25;0.25;;;;;;;-146.30;100.00;58188.94;10480772;28;20045;-84
2024/01/03 22:17:57;;;;;;;0.00;0.00;;;;;;;-146.30;100.00;58188.94;10477649;28;20098;-84
2024/01/03 22:22:59;;;;;;;0.10;0.10;;;;;;;-146.30;100.00;58188.94;10478677;28;20541;-84
2024/01/03 22:28:01;;;;;;;0.40;0.38;;;;;;;-146.30;100.00;58188.94;10480342;28;20140;-84
2024/01/03 22:33:03;;;;;;;2.05;0.45;;;;;;;-146.30;100.00;58188.94;10480232;28;20064;-85
2024/01/03 22:38:05;;;;;;;0.17;0.17;;;;;;;-146.30;100.00;58188.94;10473961;28;20049;-84
2024/01/03 22:43:07;;;;;;;1.55;0.98;;;;;;;-146.30;100.00;58188.94;10462971;28;20078;-84